Time;durP1;ratioP1;P1;durP2;ratioP2;P2;SDS_P1;SDS_P2;PMS_P1;PMS_P2;Temp;Humidity;BMP_temperature;BMP_pressure;BME280_temperature;BME280_humidity;BME280_pressure;Samples;Min_cycle;Max_cycle;Signal;HPM_P1;HPM_P2
2022/10/01 06:57:34;;;;;;;3.80;3.03;;;;;;;;;;6284355;22;1288217;-66
2022/10/01 07:00:37;;;;;;;3.95;3.20;;;;;;;;;;6248237;28;20246;-65
2022/10/01 07:03:39;;;;;;;5.35;2.97;;;;;;;;;;6240429;28;20085;-76
2022/10/01 07:06:41;;;;;;;3.55;2.88;;;;;;;;;;6255472;28;20045;-67
2022/10/01 07:09:42;;;;;;;5.28;4.03;;;;;;;;;;6263483;28;20119;-65
2022/10/01 07:12:47;;;;;;;4.80;3.22;;;;;;;;;;6264909;28;20117;-64
2022/10/01 07:15:49;;;;;;;6.97;4.03;;;;;;;;;;6263487;28;20056;-65
2022/10/01 07:18:52;;;;;;;8.50;4.70;;;;;;;;;;6263024;28;20057;-66
2022/10/01 07:21:53;;;;;;;7.47;3.42;;;;;;;;;;6262277;28;20080;-65
2022/10/01 07:24:55;;;;;;;5.35;3.40;;;;;;;;;;6260786;28;20060;-66
2022/10/01 07:27:59;;;;;;;8.40;3.95;;;;;;;;;;6260821;28;20053;-66
2022/10/01 07:31:03;;;;;;;7.20;4.00;;;;;;;;;;6264199;28;20119;-65
2022/10/01 07:34:05;;;;;;;7.68;3.92;;;;;;;;;;6258052;28;20045;-69
2022/10/01 07:37:07;;;;;;;5.68;3.78;;;;;;;;;;6262805;28;20053;-70
2022/10/01 07:40:09;;;;;;;4.75;3.80;;;;;;;;;;6262896;28;20054;-66
2022/10/01 07:43:13;;;;;;;4.70;3.90;;;;;;;;;;6259154;28;20041;-76
2022/10/01 07:46:15;;;;;;;5.82;3.60;;;;;;;;;;6262561;28;20053;-65
2022/10/01 07:49:16;;;;;;;4.43;3.78;;;;;;;;;;6258640;28;20570;-67
2022/10/01 07:52:18;;;;;;;4.55;3.65;;;;;;;;;;6260581;28;20120;-66
2022/10/01 07:55:20;;;;;;;5.30;3.75;;;;;;;;;;6258276;28;20049;-65
2022/10/01 07:58:23;;;;;;;4.07;3.42;;;;;;;;;;6261546;28;20053;-65
2022/10/01 08:01:25;;;;;;;5.07;3.10;;;;;;;;;;6261541;28;20049;-65
2022/10/01 08:07:47;;;;;;;4.38;3.40;;;;;;;;;;6253071;28;20049;-65
2022/10/01 08:10:48;;;;;;;4.07;2.97;;;;;;;;;;6245305;28;20049;-73
2022/10/01 08:13:54;;;;;;;4.13;3.10;;;;;;;;;;6247946;28;20053;-65
2022/10/01 08:16:56;;;;;;;3.85;3.15;;;;;;;;;;6243770;28;20057;-73
2022/10/01 08:19:58;;;;;;;6.95;3.80;;;;;;;;;;6248818;28;20069;-65
2022/10/01 08:23:03;;;;;;;4.95;2.78;;;;;;;;;;6250031;28;20098;-65
2022/10/01 08:26:06;;;;;;;3.95;2.90;;;;;;;;;;6247221;28;20065;-69
2022/10/01 08:29:09;;;;;;;7.53;3.13;;;;;;;;;;6245174;28;20136;-72
2022/10/01 08:32:11;;;;;;;5.57;3.00;;;;;;;;;;6248335;28;20056;-66
2022/10/01 08:35:12;;;;;;;5.78;3.30;;;;;;;;;;6247369;28;20049;-67
2022/10/01 08:38:14;;;;;;;4.38;3.17;;;;;;;;;;6246996;28;20046;-65
2022/10/01 08:41:27;;;;;;;4.00;3.40;;;;;;;;;;6248415;28;20052;-85
2022/10/01 08:44:33;;;;;;;4.47;3.67;;;;;;;;;;6251977;28;20057;-65
2022/10/01 08:47:36;;;;;;;4.70;3.63;;;;;;;;;;6246751;28;20360;-84
2022/10/01 08:50:42;;;;;;;5.15;3.90;;;;;;;;;;6248138;28;20092;-65
2022/10/01 08:53:48;;;;;;;3.25;2.90;;;;;;;;;;6245323;28;20063;-65
2022/10/01 08:56:49;;;;;;;6.65;3.08;;;;;;;;;;6248441;28;20245;-65
2022/10/01 08:59:54;;;;;;;4.85;3.40;;;;;;;;;;6247330;28;20543;-65
2022/10/01 09:02:58;;;;;;;5.05;2.65;;;;;;;;;;6241682;28;20320;-66
2022/10/01 09:06:10;;;;;;;4.85;2.83;;;;;;;;;;6246348;28;20049;-66
2022/10/01 09:09:25;;;;;;;3.63;2.85;;;;;;;;;;6240936;28;20107;-66
2022/10/01 09:12:36;;;;;;;4.53;3.05;;;;;;;;;;6241245;28;20073;-66
2022/10/01 09:15:42;;;;;;;47.08;31.17;;;;;;;;;;6242494;28;20041;-68
2022/10/01 09:18:53;;;;;;;48.35;27.08;;;;;;;;;;6239952;28;20179;-66
2022/10/01 09:21:57;;;;;;;4.75;3.90;;;;;;;;;;6242557;28;20052;-67
2022/10/01 09:25:01;;;;;;;;;;;;;;;;;;6244422;28;20275;-66
2022/10/01 09:28:11;;;;;;;7.28;3.80;;;;;;;;;;6246061;28;19931;-66
2022/10/01 09:31:17;;;;;;;5.45;4.50;;;;;;;;;;6242030;28;20084;-68
2022/10/01 09:34:24;;;;;;;4.55;3.83;;;;;;;;;;6240272;28;20045;-70
2022/10/01 09:37:31;;;;;;;6.53;4.18;;;;;;;;;;6241881;28;20049;-75
2022/10/01 09:40:35;;;;;;;5.85;5.05;;;;;;;;;;6238692;28;20057;-68
2022/10/01 09:43:39;;;;;;;8.43;5.30;;;;;;;;;;6239460;28;20057;-70
2022/10/01 09:46:44;;;;;;;9.35;5.78;;;;;;;;;;6243866;28;20052;-67
2022/10/01 09:49:48;;;;;;;13.10;7.65;;;;;;;;;;6243055;28;20124;-70
2022/10/01 09:52:51;;;;;;;10.43;9.20;;;;;;;;;;6241349;28;20081;-67
2022/10/01 09:55:54;;;;;;;14.45;10.63;;;;;;;;;;6243276;28;20056;-71
2022/10/01 09:59:00;;;;;;;12.70;10.70;;;;;;;;;;6242926;28;20347;-67
2022/10/01 10:02:04;;;;;;;11.65;10.57;;;;;;;;;;6242055;28;20320;-67
2022/10/01 10:05:07;;;;;;;12.02;10.88;;;;;;;;;;6246307;28;20272;-72
2022/10/01 10:08:12;;;;;;;13.07;10.85;;;;;;;;;;6244213;28;20053;-67
2022/10/01 10:11:20;;;;;;;13.30;11.02;;;;;;;;;;6217452;28;20518;-82
2022/10/01 10:14:28;;;;;;;9.68;8.68;;;;;;;;;;6234081;28;20042;-69
2022/10/01 10:17:33;;;;;;;10.00;7.50;;;;;;;;;;6242663;28;20052;-67
2022/10/01 10:20:38;;;;;;;7.20;5.95;;;;;;;;;;6240217;28;20046;-81
2022/10/01 10:23:48;;;;;;;7.07;5.40;;;;;;;;;;6243892;28;20067;-72
2022/10/01 10:26:53;;;;;;;7.25;5.30;;;;;;;;;;6244419;28;20061;-67
2022/10/01 10:30:03;;;;;;;8.57;5.18;;;;;;;;;;6245753;28;20233;-69
2022/10/01 10:33:07;;;;;;;5.88;5.05;;;;;;;;;;6242503;28;20109;-67
2022/10/01 10:36:15;;;;;;;8.15;5.43;;;;;;;;;;6244109;28;20339;-67
2022/10/01 10:39:20;;;;;;;6.50;4.35;;;;;;;;;;6238730;28;20125;-68
2022/10/01 10:42:23;;;;;;;6.65;4.72;;;;;;;;;;6243876;28;20050;-66
2022/10/01 10:45:32;;;;;;;4.95;3.88;;;;;;;;;;6241620;28;20372;-67
2022/10/01 10:48:38;;;;;;;6.72;4.35;;;;;;;;;;6242642;28;20056;-68
2022/10/01 10:51:52;;;;;;;5.85;4.90;;;;;;;;;;6242133;28;20064;-65
2022/10/01 10:54:54;;;;;;;7.25;5.53;;;;;;;;;;6239222;28;20052;-67
2022/10/01 10:57:56;;;;;;;8.65;6.95;;;;;;;;;;6244611;28;20062;-67
2022/10/01 11:00:59;;;;;;;8.15;6.63;;;;;;;;;;6240255;28;20061;-67
2022/10/01 11:04:02;;;;;;;;;;;;;;;;;;6243461;28;20072;-65
2022/10/01 11:07:04;;;;;;;7.45;6.75;;;;;;;;;;6238109;28;19929;-66
2022/10/01 11:10:18;;;;;;;7.88;7.07;;;;;;;;;;6240901;28;20068;-67
2022/10/01 11:13:44;;;;;;;8.20;7.30;;;;;;;;;;6239185;28;20046;-69
2022/10/01 11:17:00;;;;;;;11.93;7.65;;;;;;;;;;6236939;28;20061;-71
2022/10/01 11:20:20;;;;;;;12.10;11.10;;;;;;;;;;6236384;28;20876;-70
2022/10/01 11:23:41;;;;;;;16.77;9.35;;;;;;;;;;6238069;28;20100;-67
2022/10/01 11:26:49;;;;;;;9.02;8.23;;;;;;;;;;6241612;28;20053;-67
2022/10/01 11:29:57;;;;;;;7.80;7.10;;;;;;;;;;6237081;28;20042;-70
2022/10/01 11:33:05;;;;;;;6.82;6.20;;;;;;;;;;6240122;28;20065;-65
2022/10/01 11:36:15;;;;;;;7.88;6.55;;;;;;;;;;6238301;28;20045;-71
2022/10/01 11:39:18;;;;;;;7.70;6.57;;;;;;;;;;6216190;28;20049;-70
2022/10/01 11:42:23;;;;;;;14.38;6.57;;;;;;;;;;6212671;28;20077;-70
2022/10/01 11:45:28;;;;;;;5.88;4.78;;;;;;;;;;6222656;28;20073;-72
2022/10/01 11:48:35;;;;;;;5.05;4.10;;;;;;;;;;6239227;28;20064;-70
2022/10/01 11:51:42;;;;;;;7.90;6.03;;;;;;;;;;6247251;28;20041;-69
2022/10/01 11:54:52;;;;;;;4.80;4.30;;;;;;;;;;6244887;28;20057;-66
2022/10/01 12:01:35;;;;;;;6.80;5.90;;;;;;;;;;6192643;28;20046;-67
2022/10/01 12:04:40;;;;;;;45.17;7.72;;;;;;;;;;6189663;28;20058;-67
2022/10/01 12:07:48;;;;;;;5.25;4.15;;;;;;;;;;6191824;28;20046;-66
2022/10/01 12:10:54;;;;;;;5.18;4.57;;;;;;;;;;6189676;28;20050;-66
2022/10/01 12:14:01;;;;;;;5.00;3.58;;;;;;;;;;6192867;28;20081;-66
2022/10/01 12:17:10;;;;;;;4.80;3.88;;;;;;;;;;6192400;28;20548;-69
2022/10/01 12:20:17;;;;;;;4.85;3.72;;;;;;;;;;6190845;28;20054;-65
2022/10/01 12:23:22;;;;;;;3.25;2.95;;;;;;;;;;6191427;28;20050;-66
2022/10/01 12:26:29;;;;;;;5.32;3.22;;;;;;;;;;6171969;28;20054;-69
2022/10/01 12:29:39;;;;;;;6.57;3.33;;;;;;;;;;6171480;28;20082;-68
2022/10/01 12:32:53;;;;;;;3.85;2.85;;;;;;;;;;6197439;28;20041;-69
2022/10/01 12:35:57;;;;;;;;;;;;;;;;;;6218465;28;20065;-69
2022/10/01 12:39:04;;;;;;;;;;;;;;;;;;6219557;28;19964;-68
2022/10/01 12:42:18;;;;;;;4.20;3.13;;;;;;;;;;6215392;28;19983;-69
2022/10/01 12:45:28;;;;;;;2.92;2.30;;;;;;;;;;6223440;28;20054;-70
2022/10/01 12:48:34;;;;;;;2.60;2.40;;;;;;;;;;6222910;28;20058;-72
2022/10/01 12:51:40;;;;;;;3.45;2.20;;;;;;;;;;6233667;28;20053;-71
2022/10/01 12:54:56;;;;;;;3.83;2.58;;;;;;;;;;6226261;28;20057;-71
2022/10/01 12:58:04;;;;;;;3.53;1.98;;;;;;;;;;6218256;28;20053;-76
2022/10/01 13:01:10;;;;;;;3.03;2.10;;;;;;;;;;6216838;28;20065;-70
2022/10/01 13:04:26;;;;;;;2.38;1.67;;;;;;;;;;6216303;28;20117;-71
2022/10/01 13:07:48;;;;;;;2.42;1.80;;;;;;;;;;6217227;28;20049;-70
2022/10/01 13:11:01;;;;;;;2.53;1.88;;;;;;;;;;6218812;28;20049;-72
2022/10/01 13:14:06;;;;;;;3.67;1.77;;;;;;;;;;6217543;28;20068;-71
2022/10/01 13:17:12;;;;;;;2.83;1.58;;;;;;;;;;6218485;28;20108;-66
2022/10/01 13:20:17;;;;;;;1.48;1.30;;;;;;;;;;6215698;28;20120;-66
2022/10/01 13:23:23;;;;;;;2.70;2.25;;;;;;;;;;6243352;28;20049;-66
2022/10/01 13:26:29;;;;;;;6.53;2.15;;;;;;;;;;6242460;28;20049;-67
2022/10/01 13:29:38;;;;;;;3.58;1.95;;;;;;;;;;6244669;28;20053;-65
2022/10/01 13:32:50;;;;;;;2.70;2.05;;;;;;;;;;6245316;28;20045;-71
2022/10/01 13:35:57;;;;;;;4.32;1.88;;;;;;;;;;6243846;28;20057;-68
2022/10/01 13:38:59;;;;;;;2.65;1.77;;;;;;;;;;6242813;28;20045;-66
2022/10/01 13:42:05;;;;;;;2.22;1.58;;;;;;;;;;6242448;28;20283;-70
2022/10/01 13:45:08;;;;;;;1.38;1.10;;;;;;;;;;6240807;28;20060;-68
2022/10/01 13:48:17;;;;;;;3.00;1.88;;;;;;;;;;6243907;28;20072;-68
2022/10/01 13:51:19;;;;;;;2.22;1.60;;;;;;;;;;6217389;28;20046;-68
2022/10/01 13:54:26;;;;;;;2.20;1.92;;;;;;;;;;6216428;28;20054;-69
2022/10/01 13:57:33;;;;;;;2.92;1.88;;;;;;;;;;6215710;28;20179;-73
2022/10/01 14:00:35;;;;;;;2.53;1.67;;;;;;;;;;6214965;28;20054;-68
2022/10/01 14:03:43;;;;;;;2.20;1.70;;;;;;;;;;6217811;28;20112;-69
2022/10/01 14:06:48;;;;;;;2.63;1.80;;;;;;;;;;6216798;28;20132;-68
2022/10/01 14:09:52;;;;;;;3.30;1.60;;;;;;;;;;6217633;28;20089;-68
2022/10/01 14:16:15;;;;;;;5.20;1.80;;;;;;;;;;6218291;28;20049;-67
2022/10/01 14:19:21;;;;;;;2.80;1.40;;;;;;;;;;6217450;28;20317;-74
2022/10/01 14:22:32;;;;;;;3.15;1.80;;;;;;;;;;6216886;28;20210;-70
2022/10/01 14:25:40;;;;;;;35.08;24.02;;;;;;;;;;6222064;28;20069;-71
2022/10/01 14:28:51;;;;;;;16.27;12.55;;;;;;;;;;6220988;28;20061;-70
2022/10/01 14:32:01;;;;;;;3.78;3.05;;;;;;;;;;6218876;28;20565;-70
2022/10/01 14:35:20;;;;;;;3.63;1.50;;;;;;;;;;6214628;28;20330;-69
2022/10/01 14:38:22;;;;;;;2.90;1.70;;;;;;;;;;6218669;28;20058;-70
2022/10/01 14:41:25;;;;;;;2.97;1.50;;;;;;;;;;6216928;28;20049;-73
2022/10/01 14:44:29;;;;;;;2.53;1.33;;;;;;;;;;6217012;28;20050;-71
2022/10/01 14:47:34;;;;;;;2.67;1.30;;;;;;;;;;6213861;28;20058;-71
2022/10/01 14:50:37;;;;;;;2.40;1.60;;;;;;;;;;6210058;28;20053;-71
2022/10/01 14:53:40;;;;;;;;;;;;;;;;;;6215910;28;20053;-72
2022/10/01 14:56:42;;;;;;;1.88;1.40;;;;;;;;;;6237478;28;19997;-71
2022/10/01 14:59:47;;;;;;;1.83;1.25;;;;;;;;;;6242486;28;20104;-72
2022/10/01 15:02:50;;;;;;;3.28;1.48;;;;;;;;;;6241716;28;20061;-73
2022/10/01 15:06:02;;;;;;;2.28;1.10;;;;;;;;;;6243480;28;20045;-71
2022/10/01 15:09:13;;;;;;;2.20;1.30;;;;;;;;;;6242513;28;20052;-71
2022/10/01 15:12:16;;;;;;;2.10;1.30;;;;;;;;;;6242230;28;20328;-72
2022/10/01 15:15:21;;;;;;;3.15;1.10;;;;;;;;;;6237104;28;20050;-71
2022/10/01 15:18:23;;;;;;;5.18;1.40;;;;;;;;;;6244887;28;20049;-74
2022/10/01 15:21:27;;;;;;;2.78;1.50;;;;;;;;;;6243947;28;20049;-72
2022/10/01 15:24:37;;;;;;;1.80;1.50;;;;;;;;;;6248899;28;20057;-71
2022/10/01 15:27:40;;;;;;;2.63;1.00;;;;;;;;;;6248069;28;20412;-71
2022/10/01 15:30:44;;;;;;;1.90;1.20;;;;;;;;;;6247287;28;20161;-71
2022/10/01 15:33:46;;;;;;;1.67;1.00;;;;;;;;;;6240886;28;20349;-71
2022/10/01 15:36:48;;;;;;;4.35;1.38;;;;;;;;;;6248456;28;20053;-71
2022/10/01 15:39:51;;;;;;;1.87;1.17;;;;;;;;;;6248329;28;20057;-75
2022/10/01 15:43:15;;;;;;;1.80;1.00;;;;;;;;;;6245097;28;20050;-70
2022/10/01 15:46:27;;;;;;;2.50;0.90;;;;;;;;;;6246574;28;20045;-70
2022/10/01 15:49:29;;;;;;;3.97;1.85;;;;;;;;;;6250815;28;20070;-70
2022/10/01 15:52:49;;;;;;;4.13;1.20;;;;;;;;;;6242691;28;20361;-72
2022/10/01 15:55:53;;;;;;;3.28;1.25;;;;;;;;;;6246055;28;20045;-68
2022/10/01 15:58:57;;;;;;;2.35;1.20;;;;;;;;;;6248636;28;20054;-69
2022/10/01 16:02:00;;;;;;;3.25;1.20;;;;;;;;;;6247361;28;20253;-69
2022/10/01 16:05:05;;;;;;;4.68;3.35;;;;;;;;;;6247255;28;20058;-70
2022/10/01 16:08:06;;;;;;;4.40;2.60;;;;;;;;;;6249223;28;20057;-70
2022/10/01 16:11:15;;;;;;;3.42;2.30;;;;;;;;;;6239722;28;20334;-70
2022/10/01 16:14:29;;;;;;;6.07;1.80;;;;;;;;;;6243119;28;20057;-72
2022/10/01 16:17:34;;;;;;;2.20;1.23;;;;;;;;;;6246104;28;20160;-72
2022/10/01 16:20:38;;;;;;;3.75;1.58;;;;;;;;;;6244469;28;20064;-72
2022/10/01 16:23:45;;;;;;;3.15;1.27;;;;;;;;;;6243943;28;20058;-71
2022/10/01 16:26:47;;;;;;;1.17;0.90;;;;;;;;;;6237824;28;20104;-71
2022/10/01 16:29:57;;;;;;;2.08;0.93;;;;;;;;;;6242396;28;20077;-71
2022/10/01 16:33:03;;;;;;;2.33;1.02;;;;;;;;;;6240225;28;20072;-70
2022/10/01 16:36:09;;;;;;;1.30;1.10;;;;;;;;;;6243489;28;20049;-71
2022/10/01 16:39:12;;;;;;;5.45;1.38;;;;;;;;;;6218545;28;20050;-77
2022/10/01 16:42:19;;;;;;;2.80;1.40;;;;;;;;;;6217613;28;20266;-71
2022/10/01 16:45:23;;;;;;;2.30;1.50;;;;;;;;;;6218662;28;20062;-72
2022/10/01 16:48:26;;;;;;;2.72;1.40;;;;;;;;;;6220419;28;20184;-74
2022/10/01 16:51:30;;;;;;;3.38;1.85;;;;;;;;;;6218226;28;20081;-71
2022/10/01 16:54:32;;;;;;;2.47;1.60;;;;;;;;;;6215651;28;20456;-72
2022/10/01 16:57:34;;;;;;;4.57;1.80;;;;;;;;;;6231962;28;20057;-72
2022/10/01 17:00:36;;;;;;;3.22;1.27;;;;;;;;;;6223977;28;20053;-71
2022/10/01 17:03:40;;;;;;;3.25;1.50;;;;;;;;;;6215652;28;20061;-69
2022/10/01 17:06:42;;;;;;;;;;;;;;;;;;6220709;28;20070;-70
2022/10/01 17:09:43;;;;;;;4.47;1.60;;;;;;;;;;6216679;28;20042;-74
2022/10/01 17:12:46;;;;;;;3.38;1.77;;;;;;;;;;6216938;28;20266;-71
2022/10/01 17:15:49;;;;;;;3.20;1.70;;;;;;;;;;6217797;28;20124;-70
2022/10/01 17:18:52;;;;;;;3.03;1.30;;;;;;;;;;6223106;28;20156;-71
2022/10/01 17:21:54;;;;;;;2.50;1.50;;;;;;;;;;6229067;28;20061;-69
2022/10/01 17:24:56;;;;;;;1.65;1.42;;;;;;;;;;6219267;28;20070;-78
2022/10/01 17:27:58;;;;;;;3.80;1.55;;;;;;;;;;6219286;28;20241;-70
2022/10/01 17:31:05;;;;;;;3.20;1.50;;;;;;;;;;6239577;28;20049;-71
2022/10/01 17:34:08;;;;;;;3.47;1.77;;;;;;;;;;6238554;28;20092;-75
2022/10/01 17:37:09;;;;;;;3.42;1.67;;;;;;;;;;6245148;28;20057;-74
2022/10/01 17:40:12;;;;;;;2.80;1.70;;;;;;;;;;6242503;28;20437;-70
2022/10/01 17:43:15;;;;;;;5.15;2.65;;;;;;;;;;6243250;28;20109;-69
2022/10/01 17:46:16;;;;;;;5.35;2.63;;;;;;;;;;6242868;28;20092;-71
2022/10/01 17:49:20;;;;;;;4.95;2.45;;;;;;;;;;6243615;28;20333;-70
2022/10/01 17:52:21;;;;;;;;;;;;;;;;;;6241988;28;20244;-70
2022/10/01 17:55:23;;;;;;;4.70;2.22;;;;;;;;;;6240106;28;19925;-71
2022/10/01 17:58:25;;;;;;;3.90;2.20;;;;;;;;;;6241837;28;20053;-69
2022/10/01 18:01:27;;;;;;;7.28;2.60;;;;;;;;;;6241803;28;20075;-70
2022/10/01 18:04:30;;;;;;;4.93;2.35;;;;;;;;;;6244812;28;20438;-72
2022/10/01 18:07:32;;;;;;;3.40;2.47;;;;;;;;;;6241150;28;20045;-73
2022/10/01 18:10:33;;;;;;;3.28;2.35;;;;;;;;;;6241272;28;20057;-71
2022/10/01 18:13:36;;;;;;;3.83;2.40;;;;;;;;;;6243809;28;20050;-69
2022/10/01 18:16:37;;;;;;;5.32;2.65;;;;;;;;;;6239425;28;20099;-71
2022/10/01 18:19:40;;;;;;;4.90;3.05;;;;;;;;;;6239171;28;20091;-70
2022/10/01 18:22:42;;;;;;;5.10;3.03;;;;;;;;;;6240904;28;20054;-70
2022/10/01 18:25:44;;;;;;;5.38;3.22;;;;;;;;;;6241710;28;20096;-71
2022/10/01 18:28:45;;;;;;;5.22;2.70;;;;;;;;;;6241781;28;20290;-71
2022/10/01 18:31:51;;;;;;;6.45;3.20;;;;;;;;;;6245454;28;20052;-69
2022/10/01 18:34:56;;;;;;;4.18;3.00;;;;;;;;;;6242886;28;20092;-72
2022/10/01 18:38:01;;;;;;;4.80;3.22;;;;;;;;;;6247530;28;20064;-76
2022/10/01 18:41:05;;;;;;;5.07;3.15;;;;;;;;;;6243373;28;20132;-71
2022/10/01 18:44:09;;;;;;;5.07;3.10;;;;;;;;;;6245663;28;20116;-71
2022/10/01 18:47:18;;;;;;;7.07;3.33;;;;;;;;;;6242778;28;20049;-68
2022/10/01 18:50:26;;;;;;;7.78;4.57;;;;;;;;;;6242591;28;20057;-70
2022/10/01 18:53:42;;;;;;;8.13;4.68;;;;;;;;;;6243040;28;20057;-69
2022/10/01 18:56:51;;;;;;;5.55;4.07;;;;;;;;;;6242718;28;20057;-71
2022/10/01 19:00:02;;;;;;;6.28;3.90;;;;;;;;;;6243525;28;20061;-71
2022/10/01 19:03:29;;;;;;;7.53;4.30;;;;;;;;;;6246898;28;20046;-72
2022/10/01 19:06:55;;;;;;;7.65;3.92;;;;;;;;;;6219123;28;20245;-71
2022/10/01 19:10:03;;;;;;;7.82;4.18;;;;;;;;;;6248882;28;20100;-70
2022/10/01 19:13:12;;;;;;;7.25;5.30;;;;;;;;;;6246459;28;20380;-70
2022/10/01 19:16:22;;;;;;;6.72;3.95;;;;;;;;;;6246713;28;22739;-72
2022/10/01 19:19:30;;;;;;;7.22;3.60;;;;;;;;;;6241593;28;20088;-71
2022/10/01 19:22:54;;;;;;;6.35;3.90;;;;;;;;;;6245277;28;20103;-72
2022/10/01 19:26:02;;;;;;;6.18;3.55;;;;;;;;;;6244109;28;20049;-69
2022/10/01 19:29:18;;;;;;;4.75;3.72;;;;;;;;;;6246278;28;20107;-68
2022/10/01 19:32:23;;;;;;;6.63;3.72;;;;;;;;;;6243413;28;20046;-68
2022/10/01 19:35:29;;;;;;;6.68;3.70;;;;;;;;;;6242553;28;20052;-70
2022/10/01 19:38:37;;;;;;;6.15;3.45;;;;;;;;;;6241752;28;20239;-69
2022/10/01 19:41:43;;;;;;;6.05;3.28;;;;;;;;;;6244840;28;20103;-71
2022/10/01 19:44:53;;;;;;;5.15;3.08;;;;;;;;;;6241931;28;20100;-70
2022/10/01 19:48:05;;;;;;;6.35;3.03;;;;;;;;;;6243178;28;20065;-69
2022/10/01 19:51:08;;;;;;;7.07;2.92;;;;;;;;;;6245328;28;20042;-70
2022/10/01 19:54:11;;;;;;;;;;;;;;;;;;6249960;28;20061;-70
2022/10/01 19:57:21;;;;;;;4.32;2.05;;;;;;;;;;6242105;28;19925;-71
2022/10/01 20:00:23;;;;;;;4.03;2.20;;;;;;;;;;6239810;28;20272;-70
2022/10/01 20:03:32;;;;;;;5.68;2.80;;;;;;;;;;6240239;28;20049;-68
2022/10/01 20:06:36;;;;;;;4.15;2.30;;;;;;;;;;6246284;28;20099;-72
2022/10/01 20:09:43;;;;;;;6.38;2.50;;;;;;;;;;6245820;28;20056;-71
2022/10/01 20:12:51;;;;;;;4.18;1.90;;;;;;;;;;6250661;28;20225;-69
2022/10/01 20:15:58;;;;;;;3.88;2.00;;;;;;;;;;6250944;28;20632;-71
2022/10/01 20:19:06;;;;;;;4.25;1.90;;;;;;;;;;6246285;28;20073;-74
2022/10/01 20:22:14;;;;;;;4.10;2.10;;;;;;;;;;6251916;28;20128;-73
2022/10/01 20:25:25;;;;;;;3.15;1.73;;;;;;;;;;6251982;28;20276;-71
2022/10/01 20:28:35;;;;;;;6.22;3.40;;;;;;;;;;6246890;28;20131;-70
2022/10/01 20:31:40;;;;;;;4.45;1.98;;;;;;;;;;6242477;28;20049;-70
2022/10/01 20:34:48;;;;;;;4.25;1.63;;;;;;;;;;6247347;28;20560;-72
2022/10/01 20:37:59;;;;;;;3.45;1.42;;;;;;;;;;6251373;28;20349;-71
2022/10/01 20:41:05;;;;;;;3.80;1.65;;;;;;;;;;6245270;28;20045;-71
2022/10/01 20:44:11;;;;;;;3.60;1.40;;;;;;;;;;6249527;28;20330;-70
2022/10/01 20:47:21;;;;;;;3.97;1.55;;;;;;;;;;6248195;28;20053;-71
2022/10/01 20:50:28;;;;;;;4.60;1.20;;;;;;;;;;6250035;28;20060;-71
2022/10/01 20:53:34;;;;;;;2.80;1.40;;;;;;;;;;6250886;28;20045;-71
2022/10/01 20:56:41;;;;;;;5.22;1.40;;;;;;;;;;6246986;28;20084;-71
2022/10/01 20:59:45;;;;;;;1.88;1.20;;;;;;;;;;6248961;28;20087;-72
2022/10/01 21:02:50;;;;;;;2.83;1.20;;;;;;;;;;6249953;28;20054;-73
2022/10/01 21:05:54;;;;;;;6.28;1.10;;;;;;;;;;6245835;28;20276;-71
2022/10/01 21:08:59;;;;;;;2.15;1.20;;;;;;;;;;6245215;28;20112;-71
2022/10/01 21:12:04;;;;;;;3.85;1.33;;;;;;;;;;6248752;28;20057;-72
2022/10/01 21:15:12;;;;;;;2.55;1.33;;;;;;;;;;6248405;28;20041;-72
2022/10/01 21:18:22;;;;;;;3.33;1.50;;;;;;;;;;6245106;28;20202;-75
2022/10/01 21:21:34;;;;;;;3.35;1.67;;;;;;;;;;6247638;28;20048;-71
2022/10/01 21:24:56;;;;;;;5.63;1.52;;;;;;;;;;6246537;28;20045;-72
2022/10/01 21:28:21;;;;;;;2.83;1.60;;;;;;;;;;6249289;28;20096;-73
2022/10/01 21:31:33;;;;;;;2.50;1.10;;;;;;;;;;6247562;28;20083;-71
2022/10/01 21:34:45;;;;;;;3.15;1.30;;;;;;;;;;6244221;28;20129;-71
2022/10/01 21:37:56;;;;;;;3.13;1.25;;;;;;;;;;6242947;28;20064;-72
2022/10/01 21:41:12;;;;;;;9.15;2.42;;;;;;;;;;6247457;28;20355;-73
2022/10/01 21:44:53;;;;;;;4.28;2.25;;;;;;;;;;6243430;28;20050;-73
2022/10/01 21:48:15;;;;;;;5.32;1.77;;;;;;;;;;6145542;28;20047;-72
2022/10/01 21:51:18;;;;;;;5.43;2.03;;;;;;;;;;6131811;29;20096;-69
2022/10/01 21:54:39;;;;;;;5.50;1.67;;;;;;;;;;6130541;28;20106;-72
2022/10/01 21:57:51;;;;;;;4.65;1.58;;;;;;;;;;6145407;28;20098;-74
2022/10/01 22:00:59;;;;;;;3.15;1.80;;;;;;;;;;6146367;28;20059;-72
2022/10/01 22:04:08;;;;;;;6.20;2.85;;;;;;;;;;6145540;28;20101;-72
2022/10/01 22:07:16;;;;;;;4.18;1.77;;;;;;;;;;6147728;28;20054;-72
2022/10/01 22:10:23;;;;;;;4.57;2.67;;;;;;;;;;6142064;28;20124;-73
2022/10/01 22:13:28;;;;;;;4.22;1.95;;;;;;;;;;6135842;28;20065;-72
2022/10/01 22:16:34;;;;;;;3.72;1.83;;;;;;;;;;6145957;28;20047;-72
2022/10/01 22:19:39;;;;;;;2.67;2.00;;;;;;;;;;6145340;28;20058;-72
2022/10/01 22:22:41;;;;;;;4.38;1.80;;;;;;;;;;6206483;28;20046;-72
2022/10/01 22:25:46;;;;;;;4.55;2.50;;;;;;;;;;6216481;28;20364;-74
2022/10/01 22:28:50;;;;;;;4.88;3.00;;;;;;;;;;6217191;28;20073;-75
2022/10/01 22:31:58;;;;;;;6.40;3.05;;;;;;;;;;6215910;28;20058;-73
2022/10/01 22:35:03;;;;;;;4.90;2.50;;;;;;;;;;6218414;28;20048;-72
2022/10/01 22:38:12;;;;;;;4.13;2.70;;;;;;;;;;6222845;28;20101;-73
2022/10/01 22:41:20;;;;;;;6.38;2.80;;;;;;;;;;6213588;28;20038;-72
2022/10/01 22:44:23;;;;;;;7.43;2.95;;;;;;;;;;6233034;28;20100;-72
2022/10/01 22:47:39;;;;;;;7.00;2.28;;;;;;;;;;6215099;28;20054;-73
2022/10/01 22:50:49;;;;;;;5.18;2.85;;;;;;;;;;6216074;28;20402;-74
2022/10/01 22:54:02;;;;;;;4.95;2.60;;;;;;;;;;6213420;28;20380;-73
2022/10/01 22:57:18;;;;;;;4.07;1.63;;;;;;;;;;6219555;28;20058;-73
2022/10/01 23:00:20;;;;;;;5.53;2.15;;;;;;;;;;6233078;28;20198;-73
2022/10/01 23:03:32;;;;;;;2.40;1.63;;;;;;;;;;6240347;28;20060;-73
2022/10/01 23:06:37;;;;;;;1.95;1.30;;;;;;;;;;6241463;28;20060;-73
2022/10/01 23:09:43;;;;;;;3.00;1.20;;;;;;;;;;6247384;28;20268;-73
2022/10/01 23:13:04;;;;;;;4.30;1.52;;;;;;;;;;6237842;28;20057;-72
2022/10/01 23:16:13;;;;;;;2.63;1.52;;;;;;;;;;6245034;28;20420;-72
2022/10/01 23:19:26;;;;;;;2.50;1.30;;;;;;;;;;6245824;28;20315;-73
2022/10/01 23:22:38;;;;;;;3.15;1.25;;;;;;;;;;6244234;28;20053;-72
2022/10/01 23:25:50;;;;;;;2.63;1.58;;;;;;;;;;6245339;28;20042;-72
2022/10/01 23:29:02;;;;;;;4.93;1.40;;;;;;;;;;6244824;28;20256;-72
2022/10/01 23:32:11;;;;;;;6.15;1.75;;;;;;;;;;6242208;28;20064;-72
2022/10/01 23:35:17;;;;;;;4.45;1.73;;;;;;;;;;6240179;28;20049;-72
2022/10/01 23:38:48;;;;;;;3.17;1.80;;;;;;;;;;6243392;28;20160;-72
2022/10/01 23:41:55;;;;;;;3.60;1.60;;;;;;;;;;6243712;28;20459;-73
2022/10/01 23:45:03;;;;;;;3.35;1.63;;;;;;;;;;6244447;28;20083;-73
2022/10/01 23:48:10;;;;;;;3.83;1.67;;;;;;;;;;6245151;28;20618;-72
2022/10/01 23:51:19;;;;;;;3.42;2.33;;;;;;;;;;6244117;28;20053;-72
2022/10/01 23:54:26;;;;;;;6.22;2.00;;;;;;;;;;6242730;28;20075;-73
2022/10/01 23:57:30;;;;;;;4.57;1.70;;;;;;;;;;6247219;28;20072;-74
